Walid Al Naqbi

Chefscout - Al Nasr
22 Feb 2028
Dienstag
Verarbeitung

Persönlichkeit

Anpassungsfähigkeit (12) Ehrgeiz (17) Kontroverse (19) Loyalität (3) Druck (7) Professionalität (5) Fairness (15) Temperament (3)

Profil

Trainerstil Demokratisch
Lizenz Kontinentale B
Entschlossenheit 10
Menschenführung 7
Motivation 6
Disziplin 4
Arbeitszufriedenheit
100%
Ermüdung
0%
Rolle Chefscout
Gehalt 34.3K p/W
Vertrag 14.03.2030

Leistung

Verhalten Gut
Trainingseffektivität
40%
Spielerentwicklung
25%
Verletzungsprävention
60%
Taktische Umsetzung
30%

Letzte Ereignisse

Spieler begutachtet 7T her
Nahm an einer Scouting-Besprechung teil 7T her
Spieler begutachtet 7T her
Spieler begutachtet 7T her
Spieler begutachtet 7T her
Spieler begutachtet 7T her
Spieler begutachtet 7T her
Spieler begutachtet 14T her

Aktuell beobachtet

188
Spieler Verein Status Fähigkeit Vertrauen Beobachtet Zuletzt beobachtet Letzte Stimme
Mauro Luna Diale Akhmat Grozny Aktiv 126 / 105 40% 1 21.02.2028 -
Luca Williams-Barnett Tranmere Rovers Aktiv 112 / 121 40% 1 21.02.2028 -
Lewis Morgan SuperSport United Aktiv 144 / 136 40% 2 19.02.2028 -
Yusuke Matsuo Esteghlal Aktiv 131 / 128 40% 1 18.02.2028 -
Iván Angulo Orlando City Aktiv 126 / 140 40% 1 18.02.2028 -
Ernie Weaver AFC Wimbledon Aktiv 100 / 127 40% 2 17.02.2028 -
Jan Bürger Gillingham Aktiv 107 / 115 40% 2 17.02.2028 -
Brais Méndez Columbus Crew Aktiv 160 / 145 40% 1 17.02.2028 -
Mahmoud Al Shamsi Zamalek Aktiv 142 / 133 40% 1 17.02.2028 -
Ronan Kpakio Cardiff City Aktiv 130 / 139 40% 1 15.02.2028 -
Moustapha Sémbène Hajer Aktiv 100 / 111 40% 2 14.02.2028 -
Owen Foye Swindon Town Aktiv 70 / 96 40% 1 14.02.2028 -
Mohau Nkota Al-Ettifaq Aktiv 125 / 119 40% 2 12.02.2028 -
Theo Bongonda Al-Ra'ed Aktiv 146 / 143 40% 1 12.02.2028 -
Nasser Mansi Najran Aktiv 125 / 123 40% 1 10.02.2028 -
Josh Brownhill Al-Shabab Aktiv 131 / 140 40% 1 09.02.2028 -
John Okoye Ebuka Ittihad Aktiv 114 / 108 40% 1 09.02.2028 -
Youssef Belammari Al Ahly Aktiv 128 / 126 40% 1 08.02.2028 -
Allan Saint-Maximin Charlotte Football Club Aktiv 126 / 147 40% 1 08.02.2028 -
Emmanuel Sabbi Vancouver Whitecaps Aktiv 107 / 118 40% 2 07.02.2028 -
Luciano Boggio Nacional Aktiv 119 / 124 40% 1 07.02.2028 -
Farid El Melali CR Belouizdad Aktiv 114 / 138 40% 1 25.01.2028 -
Mahamadou Doumbia Al-Ittihad Aktiv 145 / 138 40% 1 25.01.2028 -
Renato Júnior Al Wasl Aktiv 121 / 120 55% 1 24.01.2028 -
Yaseen Al-Jaber Al-Saudi Al-Watani Aktiv 87 / 88 40% 1 18.01.2028 -
Leandrinho Emirates Club Aktiv 124 / 122 55% 1 17.01.2028 -
David Valencia Alianza Petrolera Aktiv 122 / 134 40% 1 17.01.2028 -
Ibrahim El Wensh Masr El Makasa Aktiv 86 / 89 40% 1 17.01.2028 -
Mandla Mahlangu Ajax Cape Town Verloren 105 / 106 66% 1 01.01.2028 -
Peter Shalulile Mamelodi Sundowns Verloren 129 / 129 66% 1 01.01.2028 Befürworten
Emilio Di Fulvio Colegiales Aktiv 124 / 119 40% 1 01.01.2028 -
Angus Gunn San Jose Earthquakes Aktiv 113 / 129 40% 1 01.01.2028 -
Maximiliano Gómez Nacional Aktiv 125 / 129 40% 4 30.12.2027 -
Alexander Díaz Deportivo Riestra Aktiv 134 / 124 40% 3 30.12.2027 -
Timo Werner San Jose Earthquakes Aktiv 122 / 138 40% 4 29.12.2027 -
Brian Mansilla Akhmat Grozny Aktiv 143 / 134 40% 1 29.12.2027 -
Tomás Chancalay Minnesota United FC Aktiv 136 / 116 40% 7 28.12.2027 -
Luciano Cosentino Wanderers Aktiv 128 / 118 40% 5 26.12.2027 -
Josh Sargent Toronto FC Aktiv 146 / 118 40% 5 26.12.2027 -
Wilfried Kanga Al-Fateh Aktiv 120 / 130 40% 3 25.12.2027 -
Musa Barrow Al-Khaleej Aktiv 153 / 135 40% 1 25.12.2027 -
Wessam Abou Ali Columbus Crew Aktiv 122 / 129 40% 4 24.12.2027 -
Vegard Erlien Tromso Aktiv 110 / 117 40% 3 22.12.2027 -
Mehdi Ghayedi Al Ahly Aktiv 121 / 142 40% 2 22.12.2027 -
Ollie Watkins Estudiantes Aktiv 144 / 157 40% 3 20.12.2027 -
Monsef Bakrar Al Ahly Aktiv 111 / 120 40% 1 20.12.2027 -
Hwang Hee-Chan Wolverhampton Aktiv 127 / 149 40% 1 19.12.2027 -
Martín Ojeda Orlando City Aktiv 118 / 125 40% 2 18.12.2027 -
Tomás Conechny Racing Club Aktiv 133 / 120 40% 2 15.12.2027 -
Jesus Ferreira Seattle Sounders Aktiv 131 / 133 40% 7 15.12.2027 -
Jofre Torrents Ajax Aktiv 139 / 141 40% 3 12.12.2027 -
Hervin Goyes Deportivo Pasto Aktiv 97 / 108 40% 2 12.12.2027 -
Morgan Guilavogui Real Salt Lake Aktiv 115 / 136 40% 2 08.12.2027 -
Tiago Gordillo San Miguel Aktiv 80 / 98 40% 2 07.12.2027 -
Marvelous Freedom Ikorodu City Aktiv 93 / 104 40% 1 07.12.2027 -
Alejo Cruz Juventud Aktiv 135 / 114 40% 1 07.12.2027 -
João Klauss LA Galaxy Aktiv 123 / 137 40% 1 06.12.2027 -
Luca Langoni Colorado Rapids Aktiv 125 / 129 40% 1 01.12.2027 -
Moussa Dembélé CR Belouizdad Aktiv 145 / 138 40% 1 29.11.2027 -
Tadeo Allende Inter Miami CF Aktiv 110 / 132 40% 2 28.11.2027 -
Brandon Vázquez Austin FC Aktiv 123 / 121 40% 1 28.11.2027 -
Hosea Michael Remo Stars Aktiv 92 / 93 40% 3 23.11.2027 -
Edwuin Cetré Estudiantes Aktiv 130 / 134 40% 2 23.11.2027 -
Sam Surridge Nashville SC Aktiv 148 / 125 40% 3 21.11.2027 -
David Asayure Lokomotivi Aktiv 95 / 86 40% 1 20.11.2027 -
Samuel Posada Leones Aktiv 89 / 83 40% 4 19.11.2027 -
Joel Ezra Enyimba Aktiv 94 / 98 40% 4 16.11.2027 -
Lucas Camejo River Plate Aktiv 84 / 90 40% 2 12.11.2027 -
Mads Bomholt Stabaek Aktiv 91 / 111 40% 1 12.11.2027 -
Alexis Cuello San Lorenzo Aktiv 117 / 129 40% 4 09.11.2027 -
Cheikh Sabaly Vancouver Whitecaps Aktiv 111 / 136 40% 1 08.11.2027 -
Rafael Navarro St. Louis CITY SC Aktiv 117 / 127 40% 2 06.11.2027 -
Harbor Miller LA Galaxy Aktiv 104 / 98 40% 1 05.11.2027 -
Kerwin Vargas Seattle Sounders Aktiv 111 / 139 40% 2 04.11.2027 -
Ignacio Ramírez Newell's Old Boys Aktiv 113 / 132 40% 3 04.11.2027 -
Breel Embolo Atlanta United FC Aktiv 145 / 135 40% 3 30.10.2027 -
Juan Camilo Córdoba Deportivo Pereira Aktiv 81 / 98 40% 2 29.10.2027 -
Abubacarr Sedi Kinteh Al-Hilal Aktiv 136 / 138 40% 4 29.10.2027 -
Daniel Karlsbakk Sarpsborg 08 Aktiv 137 / 119 40% 1 29.10.2027 -
Afimico Pululu Rosario Central Aktiv 129 / 136 40% 2 23.10.2027 -
Tyson Pearce St. Louis CITY SC Aktiv 100 / 104 40% 3 22.10.2027 -
Leonardo Campana New England Revolution Aktiv 126 / 120 40% 2 22.10.2027 -
Nəriman Axundzadə Columbus Crew Aktiv 112 / 126 40% 3 21.10.2027 -
Agustín Anello Philadelphia Union Aktiv 112 / 127 40% 1 21.10.2027 -
Onuorah Onyedika Kun Khalifat Aktiv 94 / 90 40% 1 20.10.2027 -
Luca Martínez Dupuy Godoy Cruz Aktiv 114 / 125 40% 2 14.10.2027 -
Mikkel Hope Haugesund Aktiv 117 / 110 40% 3 13.10.2027 -
Olaniyi Saheed Kwara United Aktiv 79 / 89 40% 1 13.10.2027 -
Godwin Oham Warri Wolves Aktiv 73 / 84 40% 1 08.10.2027 -
Duncan McGuire Houston Dynamo Aktiv 112 / 127 40% 1 07.10.2027 -
Ignacio Fernández Boston River Aktiv 89 / 91 40% 2 30.09.2027 -
Julián Bazán Philadelphia Union Aktiv 120 / 116 40% 2 29.09.2027 -
José Correa Deportivo Tachira Aktiv 88 / 97 40% 1 29.09.2027 -
Issa Yusuf Shooting Stars Aktiv 100 / 91 40% 1 28.09.2027 -
Mauro Carrizo Atlético Tucumán Aktiv 95 / 105 40% 2 26.09.2027 -
Esteban de Lima Tacuarembo Aktiv 93 / 94 40% 2 22.09.2027 -
Julio Patiño Fortaleza CEIF Aktiv 73 / 84 40% 1 17.09.2027 -
Jair Collahuazo Kudrivka Aktiv 117 / 121 40% 2 16.09.2027 -
Luis Otávio Colorado Rapids Aktiv 106 / 127 40% 1 16.09.2027 -
Alejandro Almaraz Nueva Chicago Aktiv 96 / 123 40% 1 15.09.2027 -
Ricky Atletico Venezuela Aktiv 93 / 106 40% 1 14.09.2027 -
Mbekezeli Mbokazi Chicago Fire Aktiv 137 / 122 40% 2 11.09.2027 -
Diego Vargas San Marcos de Arica Aktiv 103 / 93 40% 1 10.09.2027 -
Chibueze Oputa Rangers International Aktiv 97 / 103 40% 1 08.09.2027 -
Matías Canedo Rampla Juniors Aktiv 86 / 93 40% 1 06.09.2027 -
Jofrank Istifanus Nasarawa United Aktiv 69 / 103 40% 1 31.08.2027 -
Alejo Dramisino Atlanta Aktiv 125 / 123 40% 1 30.08.2027 -
Antony Portland Timbers Aktiv 117 / 140 40% 1 30.08.2027 -
Renzo Bacchia Racing Aktiv 125 / 110 40% 1 23.08.2027 -
Roberto Ramírez Godoy Cruz Aktiv 124 / 109 40% 1 23.08.2027 -
Farhah Al-Shamrani Al-Ra'ed Aktiv 90 / 108 40% 1 21.08.2027 -
Ismail Al Suwaidi Al Fujairah Aktiv 121 / 144 40% 2 19.08.2027 -
Gabriel Strefezza Palermo Aktiv 133 / 138 40% 1 18.08.2027 -
Chari Giwa US Bougouba Aktiv 91 / 81 40% 1 09.08.2027 -
Ibrahim Sabiu Bendel Insurance Aktiv 70 / 88 40% 1 28.07.2027 -
Matheus Gonçalves Al-Ahli Aktiv 129 / 131 40% 2 28.06.2027 -
Ben Sheaf Wrexham Aktiv 128 / 135 40% 1 28.06.2027 -
Musab Al-Juwayr Al-Qadisiyah Aktiv 128 / 140 40% 1 18.06.2027 -
Miguel Crespo Al-Khaleej Aktiv 124 / 122 40% 1 18.06.2027 -
Yuval Ranon Vitesse Aktiv 111 / 91 40% 1 04.06.2027 -
Baylee Dipepa Norwich City Aktiv 92 / 127 40% 1 03.06.2027 -
Alagie Wally Veres Aktiv 92 / 88 40% 1 03.06.2027 -
Bento Al-Nassr Aktiv 146 / 126 40% 6 01.06.2027 -
Tshepang Moremi Orlando Pirates Verloren 113 / 113 66% 1 01.06.2027 Befürworten
Khama Dolly Utrecht Verhandlung 123 / 124 68% 1 01.06.2027 -
Daniel Awuni Aduana Stars Aktiv 102 / 81 40% 1 30.05.2027 -
Tiago Freitas Benfica Aktiv 107 / 112 40% 1 30.05.2027 -
Samuele Perisan Audace Cerignola Aktiv 119 / 113 40% 4 28.05.2027 -
Michael Cooper Sheffield United Aktiv 149 / 119 40% 2 28.05.2027 -
Daniel Iversen Preston Aktiv 125 / 129 40% 4 27.05.2027 -
Christian Walton Ipswich Town Aktiv 148 / 125 40% 1 21.05.2027 -
Jonathan Klinsmann Cesena Aktiv 114 / 133 40% 2 19.05.2027 -
Cesare Galeotti Trapani Aktiv 102 / 103 40% 1 19.05.2027 -
Max O'Leary West Bromwich Albion Aktiv 114 / 127 40% 2 17.05.2027 -
Percy Jali Free State Stars Aktiv 90 / 86 40% 3 16.05.2027 -
Murphy Cooper Plymouth Argyle Aktiv 123 / 124 40% 5 14.05.2027 -
Egil Selvik Watford Aktiv 110 / 141 40% 5 13.05.2027 -
Tommaso Nobile Renate Aktiv 97 / 112 40% 2 11.05.2027 -
Bradley Mabunda SuperSport United Aktiv 97 / 103 40% 2 10.05.2027 -
Michele Cerofolini Bari Aktiv 129 / 142 40% 4 07.05.2027 -
Alfie Whiteman Newport County Aktiv 101 / 102 40% 2 07.05.2027 -
Balázs Tóth Blackburn Rovers Aktiv 142 / 139 40% 1 06.05.2027 -
Gianmarco Vannucchi Benevento Aktiv 124 / 129 40% 1 05.05.2027 -
Leandro Martins Benfica Aktiv 100 / 102 40% 1 04.05.2027 -
Franz-Ethan Meichtry Genoa Aktiv 123 / 135 40% 1 03.05.2027 -
Paulo Iago Sporting CP Aktiv 95 / 88 40% 1 25.04.2027 -
Dramane Kamagaté USM Alger Aktiv 107 / 106 40% 1 25.04.2027 -
Víctor Guzmán Sporting CP Aktiv 86 / 86 40% 2 24.04.2027 -
Shea Lacey Wolverhampton Aktiv 119 / 118 40% 2 17.04.2027 -
Daniil Frolkin Fakel Aktiv 91 / 98 40% 2 15.04.2027 -
Bailey Peacock-Farrell Blackpool Aktiv 99 / 115 40% 2 15.04.2027 -
Fahad Hassan Al Shabab Aktiv 117 / 131 40% 2 13.04.2027 -
Will Dennis Milton Keynes Dons Aktiv 91 / 101 40% 1 12.04.2027 -
Joel Pereira Reading Aktiv 119 / 124 40% 1 12.04.2027 -
Walid Juma Al Shaab Aktiv 105 / 111 40% 1 05.04.2027 -
Rashid Al Junaibi Al Ahli Aktiv 121 / 122 40% 3 04.04.2027 -
George Wickens Lincoln City Aktiv 100 / 110 40% 1 04.04.2027 -
Valentin Atangana Al-Ahli Aktiv 134 / 140 40% 1 03.04.2027 -
Rocco Vata Watford Aktiv 120 / 120 40% 1 03.04.2027 -
Riccardo Gagno Vicenza Aktiv 120 / 114 40% 1 29.03.2027 -
David Ozoh Derby County Aktiv 132 / 118 40% 1 26.03.2027 -
Ethan Williams Peterborough United Aktiv 128 / 133 40% 1 24.03.2027 -
James Dornelly Peterborough United Aktiv 112 / 97 40% 1 23.03.2027 -
Cemran Dansin Orlando Pirates Aktiv 107 / 101 40% 1 22.03.2027 -
Wladimiro Falcone Lecce Aktiv 124 / 145 40% 1 20.03.2027 -
Sergio Barlocco Trento Aktiv 105 / 97 40% 1 19.03.2027 -
Williams Wonah AS Korofina Aktiv 61 / 93 40% 1 18.03.2027 -
Rafael Camacho Sporting CP Aktiv 88 / 97 40% 1 18.03.2027 -
Dimitar Sheytanov CSKA 1948 Aktiv 117 / 120 40% 1 16.03.2027 -
Alexandr Koryakin Krasnodar Aktiv 101 / 114 40% 1 16.03.2027 -
Gianluca Saro Foggia Aktiv 109 / 122 40% 1 14.03.2027 -
Lynden Edhart Cambuur Aktiv 116 / 103 40% 1 14.03.2027 -
Fuzy Taylor Medeama Aktiv 84 / 88 40% 1 06.03.2027 -
Nino Marcelli Slovan Bratislava Aktiv 120 / 137 40% 1 02.03.2027 -
Kamran Ramazanov Inter Aktiv 97 / 104 40% 1 27.12.2026 -
Simphiwe Selepe Orlando Pirates Aktiv 114 / 114 40% 1 26.12.2026 -
Mpho Khethang AS Police Aktiv 66 / 89 40% 1 26.12.2026 -
Leandrinho Sharjah Aktiv 117 / 107 40% 1 23.12.2026 -
Rodrigo Dias Sporting CP Aktiv 113 / 110 40% 1 22.12.2026 -
João Simões Sporting CP Aktiv 117 / 123 40% 1 22.12.2026 -
Martim Cunha Porto Aktiv 116 / 103 40% 1 21.12.2026 -
Maxim Radchenko Rostov Aktiv 89 / 74 40% 1 18.12.2026 -
Keagan Phiri Platinum Stars Aktiv 113 / 117 40% 1 16.12.2026 -
Alan Forneris Racing Club Aktiv 111 / 124 40% 1 15.12.2026 -
Hlompho Lorch Ajax Cape Town Aktiv 113 / 116 40% 1 17.11.2026 -
Joel Godoy Sarmiento Aktiv 120 / 128 40% 1 04.11.2026 -
Ismail Abdulrahman Al Shaab Aktiv 132 / 117 40% 1 04.11.2026 -
Walid Omar Al Shaab Aktiv 124 / 116 55% 1 03.08.2026 -